sensor_id;sensor_type;location;lat;lon;timestamp;P1;durP1;ratioP1;P2;durP2;ratioP2
30147;SDS011;16960;49.404;8.248;2023-02-10T00:01:34;8.77;;;7.97;;
30147;SDS011;16960;49.404;8.248;2023-02-10T00:04:01;7.83;;;7.03;;
30147;SDS011;16960;49.404;8.248;2023-02-10T00:19:50;8.33;;;7.53;;
30147;SDS011;16960;49.404;8.248;2023-02-10T00:22:17;7.47;;;6.83;;
30147;SDS011;16960;49.404;8.248;2023-02-10T00:24:44;8.80;;;8.00;;
30147;SDS011;16960;49.404;8.248;2023-02-10T00:27:10;8.73;;;7.90;;
30147;SDS011;16960;49.404;8.248;2023-02-10T00:29:37;8.90;;;8.00;;
30147;SDS011;16960;49.404;8.248;2023-02-10T00:32:04;9.30;;;8.40;;
30147;SDS011;16960;49.404;8.248;2023-02-10T00:34:31;8.60;;;7.80;;
30147;SDS011;16960;49.404;8.248;2023-02-10T00:37:00;8.07;;;7.37;;
30147;SDS011;16960;49.404;8.248;2023-02-10T00:39:26;9.40;;;8.10;;
30147;SDS011;16960;49.404;8.248;2023-02-10T00:41:53;8.47;;;7.67;;
30147;SDS011;16960;49.404;8.248;2023-02-10T00:44:20;8.23;;;7.40;;
30147;SDS011;16960;49.404;8.248;2023-02-10T00:46:47;9.07;;;8.27;;
30147;SDS011;16960;49.404;8.248;2023-02-10T00:49:14;8.10;;;7.30;;
30147;SDS011;16960;49.404;8.248;2023-02-10T00:51:41;8.50;;;7.67;;
30147;SDS011;16960;49.404;8.248;2023-02-10T00:54:09;8.30;;;7.50;;
30147;SDS011;16960;49.404;8.248;2023-02-10T00:56:38;8.13;;;7.33;;
30147;SDS011;16960;49.404;8.248;2023-02-10T00:59:05;9.27;;;8.43;;
30147;SDS011;16960;49.404;8.248;2023-02-10T01:01:32;8.57;;;7.67;;
30147;SDS011;16960;49.404;8.248;2023-02-10T01:03:59;8.37;;;7.57;;
30147;SDS011;16960;49.404;8.248;2023-02-10T01:06:25;7.77;;;7.07;;
30147;SDS011;16960;49.404;8.248;2023-02-10T01:08:52;8.23;;;7.20;;
30147;SDS011;16960;49.404;8.248;2023-02-10T01:11:21;7.87;;;7.27;;
30147;SDS011;16960;49.404;8.248;2023-02-10T01:13:48;11.67;;;8.20;;
30147;SDS011;16960;49.404;8.248;2023-02-10T01:16:15;10.60;;;8.40;;
30147;SDS011;16960;49.404;8.248;2023-02-10T01:18:42;7.63;;;6.93;;
30147;SDS011;16960;49.404;8.248;2023-02-10T01:21:11;8.13;;;7.33;;
30147;SDS011;16960;49.404;8.248;2023-02-10T01:23:39;8.10;;;7.40;;
30147;SDS011;16960;49.404;8.248;2023-02-10T01:26:06;8.27;;;7.47;;
30147;SDS011;16960;49.404;8.248;2023-02-10T01:28:35;8.73;;;7.30;;
30147;SDS011;16960;49.404;8.248;2023-02-10T01:31:04;8.07;;;7.27;;
30147;SDS011;16960;49.404;8.248;2023-02-10T01:33:32;9.10;;;8.20;;
30147;SDS011;16960;49.404;8.248;2023-02-10T01:36:01;7.77;;;7.07;;
30147;SDS011;16960;49.404;8.248;2023-02-10T01:38:30;8.90;;;8.10;;
30147;SDS011;16960;49.404;8.248;2023-02-10T01:40:57;6.83;;;6.33;;
30147;SDS011;16960;49.404;8.248;2023-02-10T01:43:24;7.87;;;7.10;;
30147;SDS011;16960;49.404;8.248;2023-02-10T01:45:52;8.47;;;7.67;;
30147;SDS011;16960;49.404;8.248;2023-02-10T01:48:19;8.13;;;7.33;;
30147;SDS011;16960;49.404;8.248;2023-02-10T01:50:47;8.00;;;7.10;;
30147;SDS011;16960;49.404;8.248;2023-02-10T01:53:19;7.90;;;7.10;;
30147;SDS011;16960;49.404;8.248;2023-02-10T01:55:48;8.17;;;7.47;;
30147;SDS011;16960;49.404;8.248;2023-02-10T01:58:18;8.10;;;7.30;;
30147;SDS011;16960;49.404;8.248;2023-02-10T02:00:49;7.40;;;6.80;;
30147;SDS011;16960;49.404;8.248;2023-02-10T02:03:17;8.07;;;7.27;;
30147;SDS011;16960;49.404;8.248;2023-02-10T02:05:44;8.63;;;7.90;;
30147;SDS011;16960;49.404;8.248;2023-02-10T02:08:13;8.80;;;6.93;;
30147;SDS011;16960;49.404;8.248;2023-02-10T02:10:54;7.83;;;7.20;;
30147;SDS011;16960;49.404;8.248;2023-02-10T02:13:30;8.43;;;7.73;;
30147;SDS011;16960;49.404;8.248;2023-02-10T02:16:09;8.63;;;7.83;;
30147;SDS011;16960;49.404;8.248;2023-02-10T02:18:47;8.30;;;7.60;;
30147;SDS011;16960;49.404;8.248;2023-02-10T02:21:30;8.33;;;7.53;;
30147;SDS011;16960;49.404;8.248;2023-02-10T02:24:22;8.03;;;7.33;;
30147;SDS011;16960;49.404;8.248;2023-02-10T02:27:03;8.03;;;7.33;;
30147;SDS011;16960;49.404;8.248;2023-02-10T02:32:29;8.10;;;7.40;;
30147;SDS011;16960;49.404;8.248;2023-02-10T02:35:01;9.00;;;8.20;;
30147;SDS011;16960;49.404;8.248;2023-02-10T02:37:32;9.00;;;7.47;;
30147;SDS011;16960;49.404;8.248;2023-02-10T02:40:05;8.87;;;7.97;;
30147;SDS011;16960;49.404;8.248;2023-02-10T02:42:33;8.10;;;7.33;;
30147;SDS011;16960;49.404;8.248;2023-02-10T02:45:00;8.37;;;7.60;;
30147;SDS011;16960;49.404;8.248;2023-02-10T02:47:36;7.63;;;6.83;;
30147;SDS011;16960;49.404;8.248;2023-02-10T02:50:22;8.10;;;7.40;;
30147;SDS011;16960;49.404;8.248;2023-02-10T02:53:03;7.70;;;7.00;;
30147;SDS011;16960;49.404;8.248;2023-02-10T02:55:38;7.67;;;6.97;;
30147;SDS011;16960;49.404;8.248;2023-02-10T02:58:15;8.67;;;7.87;;
30147;SDS011;16960;49.404;8.248;2023-02-10T03:00:48;7.90;;;7.30;;
30147;SDS011;16960;49.404;8.248;2023-02-10T03:03:18;7.73;;;7.03;;
30147;SDS011;16960;49.404;8.248;2023-02-10T03:05:45;8.17;;;7.47;;
30147;SDS011;16960;49.404;8.248;2023-02-10T03:08:12;7.63;;;7.03;;
30147;SDS011;16960;49.404;8.248;2023-02-10T03:10:39;8.23;;;7.53;;
30147;SDS011;16960;49.404;8.248;2023-02-10T03:13:06;8.33;;;7.53;;
30147;SDS011;16960;49.404;8.248;2023-02-10T03:15:33;7.20;;;6.57;;
30147;SDS011;16960;49.404;8.248;2023-02-10T03:17:59;8.30;;;7.50;;
30147;SDS011;16960;49.404;8.248;2023-02-10T03:20:28;7.83;;;7.10;;
30147;SDS011;16960;49.404;8.248;2023-02-10T03:22:55;8.40;;;7.60;;
30147;SDS011;16960;49.404;8.248;2023-02-10T03:25:21;7.53;;;6.93;;
30147;SDS011;16960;49.404;8.248;2023-02-10T03:27:48;8.27;;;7.47;;
30147;SDS011;16960;49.404;8.248;2023-02-10T03:30:15;7.90;;;7.17;;
30147;SDS011;16960;49.404;8.248;2023-02-10T03:32:44;8.03;;;7.43;;
30147;SDS011;16960;49.404;8.248;2023-02-10T03:35:13;8.07;;;7.27;;
30147;SDS011;16960;49.404;8.248;2023-02-10T03:37:42;8.80;;;8.00;;
30147;SDS011;16960;49.404;8.248;2023-02-10T03:40:09;7.17;;;6.50;;
30147;SDS011;16960;49.404;8.248;2023-02-10T03:42:37;7.90;;;7.20;;
30147;SDS011;16960;49.404;8.248;2023-02-10T03:45:04;12.53;;;7.53;;
30147;SDS011;16960;49.404;8.248;2023-02-10T03:47:31;7.70;;;7.00;;
30147;SDS011;16960;49.404;8.248;2023-02-10T03:49:58;8.73;;;7.83;;
30147;SDS011;16960;49.404;8.248;2023-02-10T03:52:25;7.60;;;6.80;;
30147;SDS011;16960;49.404;8.248;2023-02-10T03:54:53;8.77;;;7.93;;
30147;SDS011;16960;49.404;8.248;2023-02-10T03:57:20;8.40;;;7.60;;
30147;SDS011;16960;49.404;8.248;2023-02-10T03:59:47;7.60;;;7.00;;
30147;SDS011;16960;49.404;8.248;2023-02-10T04:02:14;7.90;;;7.10;;
30147;SDS011;16960;49.404;8.248;2023-02-10T04:04:40;8.00;;;7.30;;
30147;SDS011;16960;49.404;8.248;2023-02-10T04:07:07;7.20;;;6.60;;
30147;SDS011;16960;49.404;8.248;2023-02-10T04:09:34;8.20;;;7.50;;
30147;SDS011;16960;49.404;8.248;2023-02-10T04:12:03;7.57;;;6.93;;
30147;SDS011;16960;49.404;8.248;2023-02-10T04:14:30;8.20;;;7.50;;
30147;SDS011;16960;49.404;8.248;2023-02-10T04:16:57;8.57;;;7.80;;
30147;SDS011;16960;49.404;8.248;2023-02-10T04:19:24;7.50;;;6.90;;
30147;SDS011;16960;49.404;8.248;2023-02-10T04:21:51;6.90;;;6.40;;
30147;SDS011;16960;49.404;8.248;2023-02-10T04:24:18;8.13;;;7.40;;
30147;SDS011;16960;49.404;8.248;2023-02-10T04:26:45;8.33;;;7.53;;
30147;SDS011;16960;49.404;8.248;2023-02-10T04:29:13;6.77;;;6.17;;
30147;SDS011;16960;49.404;8.248;2023-02-10T04:31:40;8.00;;;7.20;;
30147;SDS011;16960;49.404;8.248;2023-02-10T04:34:07;8.40;;;7.70;;
30147;SDS011;16960;49.404;8.248;2023-02-10T04:36:34;8.33;;;7.33;;
30147;SDS011;16960;49.404;8.248;2023-02-10T04:39:01;8.10;;;7.30;;
30147;SDS011;16960;49.404;8.248;2023-02-10T04:41:29;7.67;;;7.03;;
30147;SDS011;16960;49.404;8.248;2023-02-10T04:43:56;7.47;;;6.77;;
30147;SDS011;16960;49.404;8.248;2023-02-10T04:46:24;7.57;;;6.87;;
30147;SDS011;16960;49.404;8.248;2023-02-10T04:48:51;9.03;;;8.23;;
30147;SDS011;16960;49.404;8.248;2023-02-10T04:51:18;8.37;;;7.57;;
30147;SDS011;16960;49.404;8.248;2023-02-10T04:53:44;8.53;;;7.73;;
30147;SDS011;16960;49.404;8.248;2023-02-10T04:56:12;7.87;;;7.07;;
30147;SDS011;16960;49.404;8.248;2023-02-10T04:58:40;8.20;;;7.50;;
30147;SDS011;16960;49.404;8.248;2023-02-10T05:01:07;8.27;;;7.57;;
30147;SDS011;16960;49.404;8.248;2023-02-10T05:03:35;7.80;;;7.20;;
30147;SDS011;16960;49.404;8.248;2023-02-10T05:06:05;8.30;;;7.50;;
30147;SDS011;16960;49.404;8.248;2023-02-10T05:08:34;9.00;;;8.20;;
30147;SDS011;16960;49.404;8.248;2023-02-10T05:11:05;7.13;;;6.57;;
30147;SDS011;16960;49.404;8.248;2023-02-10T05:13:33;8.63;;;7.93;;
30147;SDS011;16960;49.404;8.248;2023-02-10T05:16:00;7.83;;;7.20;;
30147;SDS011;16960;49.404;8.248;2023-02-10T05:18:28;7.57;;;6.90;;
30147;SDS011;16960;49.404;8.248;2023-02-10T05:20:56;8.33;;;7.63;;
30147;SDS011;16960;49.404;8.248;2023-02-10T05:23:23;8.47;;;7.67;;
30147;SDS011;16960;49.404;8.248;2023-02-10T05:25:50;8.37;;;7.57;;
30147;SDS011;16960;49.404;8.248;2023-02-10T05:28:17;7.97;;;7.27;;
30147;SDS011;16960;49.404;8.248;2023-02-10T05:30:44;7.80;;;7.10;;
30147;SDS011;16960;49.404;8.248;2023-02-10T05:33:11;7.90;;;7.20;;
30147;SDS011;16960;49.404;8.248;2023-02-10T05:35:38;7.17;;;6.60;;
30147;SDS011;16960;49.404;8.248;2023-02-10T05:38:06;7.57;;;6.97;;
30147;SDS011;16960;49.404;8.248;2023-02-10T05:40:33;7.13;;;6.40;;
30147;SDS011;16960;49.404;8.248;2023-02-10T05:43:00;7.90;;;7.17;;
30147;SDS011;16960;49.404;8.248;2023-02-10T05:45:27;7.40;;;6.70;;
30147;SDS011;16960;49.404;8.248;2023-02-10T05:47:54;8.07;;;7.37;;
30147;SDS011;16960;49.404;8.248;2023-02-10T05:50:21;8.73;;;7.93;;
30147;SDS011;16960;49.404;8.248;2023-02-10T05:52:48;7.37;;;6.77;;
30147;SDS011;16960;49.404;8.248;2023-02-10T05:55:16;7.80;;;7.10;;
30147;SDS011;16960;49.404;8.248;2023-02-10T05:57:43;8.37;;;7.63;;
30147;SDS011;16960;49.404;8.248;2023-02-10T06:00:11;7.70;;;7.00;;
30147;SDS011;16960;49.404;8.248;2023-02-10T06:02:39;8.03;;;7.33;;
30147;SDS011;16960;49.404;8.248;2023-02-10T06:05:06;7.67;;;6.97;;
30147;SDS011;16960;49.404;8.248;2023-02-10T06:07:33;8.47;;;7.67;;
30147;SDS011;16960;49.404;8.248;2023-02-10T06:10:00;7.90;;;7.20;;
30147;SDS011;16960;49.404;8.248;2023-02-10T06:12:28;7.70;;;7.00;;
30147;SDS011;16960;49.404;8.248;2023-02-10T06:14:55;11.13;;;8.00;;
30147;SDS011;16960;49.404;8.248;2023-02-10T06:17:22;7.87;;;7.17;;
30147;SDS011;16960;49.404;8.248;2023-02-10T06:19:51;8.50;;;7.57;;
30147;SDS011;16960;49.404;8.248;2023-02-10T06:22:18;7.90;;;7.10;;
30147;SDS011;16960;49.404;8.248;2023-02-10T06:24:45;7.90;;;7.17;;
30147;SDS011;16960;49.404;8.248;2023-02-10T06:27:11;8.03;;;7.33;;
30147;SDS011;16960;49.404;8.248;2023-02-10T06:29:40;8.80;;;6.97;;
30147;SDS011;16960;49.404;8.248;2023-02-10T06:32:07;7.43;;;6.70;;
30147;SDS011;16960;49.404;8.248;2023-02-10T06:34:34;7.80;;;7.17;;
30147;SDS011;16960;49.404;8.248;2023-02-10T06:37:01;7.60;;;6.90;;
30147;SDS011;16960;49.404;8.248;2023-02-10T06:39:28;8.37;;;7.67;;
30147;SDS011;16960;49.404;8.248;2023-02-10T06:41:55;8.57;;;7.77;;
30147;SDS011;16960;49.404;8.248;2023-02-10T06:44:22;9.27;;;8.40;;
30147;SDS011;16960;49.404;8.248;2023-02-10T06:46:51;9.97;;;8.90;;
30147;SDS011;16960;49.404;8.248;2023-02-10T06:49:18;9.80;;;8.90;;
30147;SDS011;16960;49.404;8.248;2023-02-10T06:51:44;10.03;;;9.03;;
30147;SDS011;16960;49.404;8.248;2023-02-10T06:54:11;11.00;;;9.90;;
30147;SDS011;16960;49.404;8.248;2023-02-10T06:56:38;10.97;;;9.87;;
30147;SDS011;16960;49.404;8.248;2023-02-10T06:59:06;10.90;;;9.80;;
30147;SDS011;16960;49.404;8.248;2023-02-10T07:01:33;11.90;;;10.33;;
30147;SDS011;16960;49.404;8.248;2023-02-10T07:04:01;11.20;;;10.17;;
30147;SDS011;16960;49.404;8.248;2023-02-10T07:06:28;11.50;;;10.30;;
30147;SDS011;16960;49.404;8.248;2023-02-10T07:08:55;10.87;;;9.70;;
30147;SDS011;16960;49.404;8.248;2023-02-10T07:11:22;10.10;;;9.20;;
30147;SDS011;16960;49.404;8.248;2023-02-10T07:13:49;11.53;;;10.43;;
30147;SDS011;16960;49.404;8.248;2023-02-10T07:16:16;13.87;;;12.57;;
30147;SDS011;16960;49.404;8.248;2023-02-10T07:18:43;13.40;;;12.00;;
30147;SDS011;16960;49.404;8.248;2023-02-10T07:21:11;12.67;;;11.57;;
30147;SDS011;16960;49.404;8.248;2023-02-10T07:23:38;12.27;;;11.17;;
30147;SDS011;16960;49.404;8.248;2023-02-10T07:26:06;12.73;;;11.53;;
30147;SDS011;16960;49.404;8.248;2023-02-10T07:28:34;14.17;;;11.40;;
30147;SDS011;16960;49.404;8.248;2023-02-10T07:31:01;13.10;;;11.80;;
30147;SDS011;16960;49.404;8.248;2023-02-10T07:33:28;11.60;;;10.47;;
30147;SDS011;16960;49.404;8.248;2023-02-10T07:35:57;12.67;;;11.50;;
30147;SDS011;16960;49.404;8.248;2023-02-10T07:38:27;13.00;;;11.67;;
30147;SDS011;16960;49.404;8.248;2023-02-10T07:40:54;13.40;;;12.00;;
30147;SDS011;16960;49.404;8.248;2023-02-10T07:43:21;12.40;;;11.30;;
30147;SDS011;16960;49.404;8.248;2023-02-10T07:45:48;13.23;;;12.03;;
30147;SDS011;16960;49.404;8.248;2023-02-10T07:48:15;12.97;;;11.80;;
30147;SDS011;16960;49.404;8.248;2023-02-10T07:50:42;14.07;;;12.67;;
30147;SDS011;16960;49.404;8.248;2023-02-10T07:53:09;12.33;;;11.20;;
30147;SDS011;16960;49.404;8.248;2023-02-10T07:55:38;14.70;;;12.30;;
30147;SDS011;16960;49.404;8.248;2023-02-10T07:58:05;16.70;;;15.13;;
30147;SDS011;16960;49.404;8.248;2023-02-10T08:00:32;16.73;;;15.00;;
30147;SDS011;16960;49.404;8.248;2023-02-10T08:03:00;14.57;;;13.17;;
30147;SDS011;16960;49.404;8.248;2023-02-10T08:05:27;13.27;;;11.90;;
30147;SDS011;16960;49.404;8.248;2023-02-10T08:07:54;12.43;;;11.23;;
30147;SDS011;16960;49.404;8.248;2023-02-10T08:10:21;13.17;;;11.87;;
30147;SDS011;16960;49.404;8.248;2023-02-10T08:12:50;12.07;;;10.90;;
30147;SDS011;16960;49.404;8.248;2023-02-10T08:15:17;12.67;;;11.50;;
30147;SDS011;16960;49.404;8.248;2023-02-10T08:17:46;12.23;;;10.93;;
30147;SDS011;16960;49.404;8.248;2023-02-10T08:20:13;11.90;;;10.77;;
30147;SDS011;16960;49.404;8.248;2023-02-10T08:22:40;11.03;;;10.00;;
30147;SDS011;16960;49.404;8.248;2023-02-10T08:25:07;11.53;;;10.53;;
30147;SDS011;16960;49.404;8.248;2023-02-10T08:27:35;12.17;;;11.00;;
30147;SDS011;16960;49.404;8.248;2023-02-10T08:30:04;10.50;;;9.50;;
30147;SDS011;16960;49.404;8.248;2023-02-10T08:32:31;10.97;;;10.07;;
30147;SDS011;16960;49.404;8.248;2023-02-10T08:34:58;11.70;;;10.23;;
30147;SDS011;16960;49.404;8.248;2023-02-10T08:37:25;11.63;;;10.53;;
30147;SDS011;16960;49.404;8.248;2023-02-10T08:39:52;10.13;;;8.73;;
30147;SDS011;16960;49.404;8.248;2023-02-10T08:42:19;11.63;;;10.50;;
30147;SDS011;16960;49.404;8.248;2023-02-10T08:44:46;11.40;;;10.40;;
30147;SDS011;16960;49.404;8.248;2023-02-10T08:47:15;11.27;;;9.30;;
30147;SDS011;16960;49.404;8.248;2023-02-10T08:49:42;11.00;;;10.07;;
30147;SDS011;16960;49.404;8.248;2023-02-10T08:52:09;11.00;;;9.90;;
30147;SDS011;16960;49.404;8.248;2023-02-10T08:54:36;10.50;;;9.47;;
30147;SDS011;16960;49.404;8.248;2023-02-10T08:57:03;10.70;;;9.77;;
30147;SDS011;16960;49.404;8.248;2023-02-10T08:59:30;10.97;;;10.00;;
30147;SDS011;16960;49.404;8.248;2023-02-10T09:01:57;10.83;;;9.83;;
30147;SDS011;16960;49.404;8.248;2023-02-10T09:04:26;10.00;;;9.10;;
30147;SDS011;16960;49.404;8.248;2023-02-10T09:06:53;9.73;;;8.83;;
30147;SDS011;16960;49.404;8.248;2023-02-10T09:09:21;9.83;;;8.97;;
30147;SDS011;16960;49.404;8.248;2023-02-10T09:11:50;9.63;;;8.70;;
30147;SDS011;16960;49.404;8.248;2023-02-10T09:14:18;10.53;;;9.43;;
30147;SDS011;16960;49.404;8.248;2023-02-10T09:16:45;10.00;;;9.07;;
30147;SDS011;16960;49.404;8.248;2023-02-10T09:19:12;10.23;;;9.23;;
30147;SDS011;16960;49.404;8.248;2023-02-10T09:21:41;10.43;;;9.53;;
30147;SDS011;16960;49.404;8.248;2023-02-10T09:24:08;10.47;;;9.57;;
30147;SDS011;16960;49.404;8.248;2023-02-10T09:26:35;9.73;;;8.83;;
30147;SDS011;16960;49.404;8.248;2023-02-10T09:29:02;10.30;;;9.40;;
30147;SDS011;16960;49.404;8.248;2023-02-10T09:31:29;10.00;;;9.00;;
30147;SDS011;16960;49.404;8.248;2023-02-10T09:33:56;9.90;;;9.00;;
30147;SDS011;16960;49.404;8.248;2023-02-10T09:36:23;9.67;;;8.70;;
30147;SDS011;16960;49.404;8.248;2023-02-10T09:38:52;9.87;;;8.97;;
30147;SDS011;16960;49.404;8.248;2023-02-10T09:41:24;9.80;;;8.90;;
30147;SDS011;16960;49.404;8.248;2023-02-10T09:44:08;9.63;;;8.63;;
30147;SDS011;16960;49.404;8.248;2023-02-10T09:49:45;9.13;;;8.30;;
30147;SDS011;16960;49.404;8.248;2023-02-10T09:52:24;11.20;;;8.50;;
30147;SDS011;16960;49.404;8.248;2023-02-10T09:54:59;9.23;;;8.33;;
30147;SDS011;16960;49.404;8.248;2023-02-10T09:57:29;9.70;;;8.80;;
30147;SDS011;16960;49.404;8.248;2023-02-10T10:00:03;9.33;;;8.50;;
30147;SDS011;16960;49.404;8.248;2023-02-10T10:02:39;9.20;;;8.30;;
30147;SDS011;16960;49.404;8.248;2023-02-10T10:05:14;8.40;;;7.70;;
30147;SDS011;16960;49.404;8.248;2023-02-10T10:07:48;9.00;;;8.20;;
30147;SDS011;16960;49.404;8.248;2023-02-10T10:10:20;9.67;;;8.77;;
30147;SDS011;16960;49.404;8.248;2023-02-10T10:12:51;8.70;;;7.90;;
30147;SDS011;16960;49.404;8.248;2023-02-10T10:15:18;9.47;;;8.07;;
30147;SDS011;16960;49.404;8.248;2023-02-10T10:17:55;8.50;;;7.70;;
30147;SDS011;16960;49.404;8.248;2023-02-10T10:20:40;8.80;;;8.03;;
30147;SDS011;16960;49.404;8.248;2023-02-10T10:23:20;8.63;;;7.83;;
30147;SDS011;16960;49.404;8.248;2023-02-10T10:26:07;8.53;;;7.83;;
30147;SDS011;16960;49.404;8.248;2023-02-10T10:28:44;9.03;;;8.23;;
30147;SDS011;16960;49.404;8.248;2023-02-10T10:31:20;9.80;;;8.80;;
30147;SDS011;16960;49.404;8.248;2023-02-10T10:33:52;9.47;;;8.57;;
30147;SDS011;16960;49.404;8.248;2023-02-10T10:36:22;10.43;;;8.10;;
30147;SDS011;16960;49.404;8.248;2023-02-10T10:38:57;8.83;;;8.13;;
30147;SDS011;16960;49.404;8.248;2023-02-10T10:41:28;7.87;;;7.17;;
30147;SDS011;16960;49.404;8.248;2023-02-10T10:43:58;8.33;;;7.53;;
30147;SDS011;16960;49.404;8.248;2023-02-10T10:46:26;9.03;;;8.23;;
30147;SDS011;16960;49.404;8.248;2023-02-10T10:48:56;9.83;;;8.33;;
30147;SDS011;16960;49.404;8.248;2023-02-10T10:51:23;8.73;;;7.83;;
30147;SDS011;16960;49.404;8.248;2023-02-10T10:53:51;8.90;;;8.10;;
30147;SDS011;16960;49.404;8.248;2023-02-10T10:56:26;8.50;;;7.80;;
30147;SDS011;16960;49.404;8.248;2023-02-10T10:58:59;8.80;;;8.00;;
30147;SDS011;16960;49.404;8.248;2023-02-10T11:01:31;9.03;;;7.73;;
30147;SDS011;16960;49.404;8.248;2023-02-10T11:04:04;7.97;;;7.27;;
30147;SDS011;16960;49.404;8.248;2023-02-10T11:06:33;7.70;;;7.07;;
30147;SDS011;16960;49.404;8.248;2023-02-10T11:09:03;8.97;;;8.17;;
30147;SDS011;16960;49.404;8.248;2023-02-10T11:11:35;7.23;;;6.63;;
30147;SDS011;16960;49.404;8.248;2023-02-10T11:14:12;8.23;;;7.43;;
30147;SDS011;16960;49.404;8.248;2023-02-10T11:16:41;8.00;;;7.30;;
30147;SDS011;16960;49.404;8.248;2023-02-10T11:19:16;7.87;;;7.10;;
30147;SDS011;16960;49.404;8.248;2023-02-10T11:21:45;8.67;;;7.87;;
30147;SDS011;16960;49.404;8.248;2023-02-10T11:24:17;7.80;;;7.20;;
30147;SDS011;16960;49.404;8.248;2023-02-10T11:26:57;8.10;;;7.40;;
30147;SDS011;16960;49.404;8.248;2023-02-10T11:29:26;7.13;;;6.53;;
30147;SDS011;16960;49.404;8.248;2023-02-10T11:31:54;8.13;;;7.33;;
30147;SDS011;16960;49.404;8.248;2023-02-10T11:34:23;8.27;;;7.50;;
30147;SDS011;16960;49.404;8.248;2023-02-10T11:36:52;7.20;;;6.60;;
30147;SDS011;16960;49.404;8.248;2023-02-10T11:39:22;8.17;;;7.40;;
30147;SDS011;16960;49.404;8.248;2023-02-10T11:41:52;8.07;;;7.37;;
30147;SDS011;16960;49.404;8.248;2023-02-10T11:44:24;8.53;;;7.73;;
30147;SDS011;16960;49.404;8.248;2023-02-10T11:46:54;9.33;;;8.53;;
30147;SDS011;16960;49.404;8.248;2023-02-10T11:49:22;9.60;;;8.57;;
30147;SDS011;16960;49.404;8.248;2023-02-10T11:51:53;9.40;;;8.50;;
30147;SDS011;16960;49.404;8.248;2023-02-10T11:54:22;8.77;;;7.97;;
30147;SDS011;16960;49.404;8.248;2023-02-10T11:56:51;8.90;;;8.07;;
30147;SDS011;16960;49.404;8.248;2023-02-10T11:59:50;9.10;;;8.30;;
30147;SDS011;16960;49.404;8.248;2023-02-10T12:02:27;8.93;;;8.00;;
30147;SDS011;16960;49.404;8.248;2023-02-10T12:05:07;8.63;;;7.90;;
30147;SDS011;16960;49.404;8.248;2023-02-10T12:07:49;9.77;;;8.77;;
30147;SDS011;16960;49.404;8.248;2023-02-10T12:10:25;9.10;;;8.30;;
30147;SDS011;16960;49.404;8.248;2023-02-10T12:12:58;8.93;;;7.90;;
30147;SDS011;16960;49.404;8.248;2023-02-10T12:15:34;8.17;;;7.47;;
30147;SDS011;16960;49.404;8.248;2023-02-10T12:18:18;8.53;;;7.47;;
30147;SDS011;16960;49.404;8.248;2023-02-10T12:20:56;8.40;;;7.70;;
30147;SDS011;16960;49.404;8.248;2023-02-10T12:23:44;7.43;;;6.73;;
30147;SDS011;16960;49.404;8.248;2023-02-10T12:26:24;8.07;;;7.37;;
30147;SDS011;16960;49.404;8.248;2023-02-10T12:29:02;8.63;;;7.83;;
30147;SDS011;16960;49.404;8.248;2023-02-10T12:31:41;8.70;;;7.80;;
30147;SDS011;16960;49.404;8.248;2023-02-10T12:34:30;8.40;;;7.60;;
30147;SDS011;16960;49.404;8.248;2023-02-10T12:37:15;7.70;;;7.00;;
30147;SDS011;16960;49.404;8.248;2023-02-10T12:39:54;8.87;;;7.50;;
30147;SDS011;16960;49.404;8.248;2023-02-10T12:42:40;7.60;;;6.97;;
30147;SDS011;16960;49.404;8.248;2023-02-10T12:45:16;9.33;;;8.43;;
30147;SDS011;16960;49.404;8.248;2023-02-10T12:47:55;7.67;;;6.97;;
30147;SDS011;16960;49.404;8.248;2023-02-10T12:50:33;8.83;;;8.00;;
30147;SDS011;16960;49.404;8.248;2023-02-10T12:53:28;7.63;;;6.90;;
30147;SDS011;16960;49.404;8.248;2023-02-10T12:56:03;10.13;;;7.90;;
30147;SDS011;16960;49.404;8.248;2023-02-10T12:58:38;8.53;;;7.77;;
30147;SDS011;16960;49.404;8.248;2023-02-10T13:01:09;8.07;;;7.37;;
30147;SDS011;16960;49.404;8.248;2023-02-10T13:03:44;7.80;;;7.10;;
30147;SDS011;16960;49.404;8.248;2023-02-10T13:06:17;7.93;;;7.30;;
30147;SDS011;16960;49.404;8.248;2023-02-10T13:08:51;8.77;;;7.93;;
30147;SDS011;16960;49.404;8.248;2023-02-10T13:11:27;7.70;;;7.07;;
30147;SDS011;16960;49.404;8.248;2023-02-10T13:14:00;7.90;;;7.10;;
30147;SDS011;16960;49.404;8.248;2023-02-10T13:16:36;7.33;;;6.73;;
30147;SDS011;16960;49.404;8.248;2023-02-10T13:19:07;7.60;;;6.90;;
30147;SDS011;16960;49.404;8.248;2023-02-10T13:21:43;7.83;;;7.13;;
30147;SDS011;16960;49.404;8.248;2023-02-10T13:24:19;7.97;;;6.97;;
30147;SDS011;16960;49.404;8.248;2023-02-10T13:26:55;8.10;;;7.30;;
30147;SDS011;16960;49.404;8.248;2023-02-10T13:29:32;8.40;;;7.37;;
30147;SDS011;16960;49.404;8.248;2023-02-10T13:32:10;7.17;;;6.57;;
30147;SDS011;16960;49.404;8.248;2023-02-10T13:34:56;7.73;;;7.03;;
30147;SDS011;16960;49.404;8.248;2023-02-10T13:37:27;8.00;;;7.30;;
30147;SDS011;16960;49.404;8.248;2023-02-10T13:40:00;9.03;;;7.40;;
30147;SDS011;16960;49.404;8.248;2023-02-10T13:42:31;7.30;;;6.70;;
30147;SDS011;16960;49.404;8.248;2023-02-10T13:45:03;6.47;;;5.97;;
30147;SDS011;16960;49.404;8.248;2023-02-10T13:47:33;7.20;;;6.60;;
30147;SDS011;16960;49.404;8.248;2023-02-10T13:50:07;6.97;;;6.30;;
30147;SDS011;16960;49.404;8.248;2023-02-10T13:52:52;7.63;;;7.03;;
30147;SDS011;16960;49.404;8.248;2023-02-10T13:55:26;6.80;;;6.20;;
30147;SDS011;16960;49.404;8.248;2023-02-10T13:58:14;12.40;;;6.57;;
30147;SDS011;16960;49.404;8.248;2023-02-10T14:00:58;7.70;;;6.33;;
30147;SDS011;16960;49.404;8.248;2023-02-10T14:03:25;9.40;;;6.77;;
30147;SDS011;16960;49.404;8.248;2023-02-10T14:05:56;6.70;;;6.00;;
30147;SDS011;16960;49.404;8.248;2023-02-10T14:08:26;8.03;;;7.23;;
30147;SDS011;16960;49.404;8.248;2023-02-10T14:10:56;8.67;;;6.97;;
30147;SDS011;16960;49.404;8.248;2023-02-10T14:13:25;17.03;;;7.47;;
30147;SDS011;16960;49.404;8.248;2023-02-10T14:15:57;9.27;;;6.50;;
30147;SDS011;16960;49.404;8.248;2023-02-10T14:18:27;7.33;;;6.73;;
30147;SDS011;16960;49.404;8.248;2023-02-10T14:20:57;7.67;;;6.00;;
30147;SDS011;16960;49.404;8.248;2023-02-10T14:23:26;7.23;;;6.53;;
30147;SDS011;16960;49.404;8.248;2023-02-10T14:25:58;8.87;;;6.80;;
30147;SDS011;16960;49.404;8.248;2023-02-10T14:28:28;10.23;;;7.23;;
30147;SDS011;16960;49.404;8.248;2023-02-10T14:31:03;7.40;;;6.67;;
30147;SDS011;16960;49.404;8.248;2023-02-10T14:33:33;7.83;;;7.13;;
30147;SDS011;16960;49.404;8.248;2023-02-10T14:36:03;8.33;;;7.50;;
30147;SDS011;16960;49.404;8.248;2023-02-10T14:38:33;7.63;;;6.90;;
30147;SDS011;16960;49.404;8.248;2023-02-10T14:41:01;7.60;;;6.90;;
30147;SDS011;16960;49.404;8.248;2023-02-10T14:43:29;10.30;;;7.37;;
30147;SDS011;16960;49.404;8.248;2023-02-10T14:45:58;7.13;;;6.43;;
30147;SDS011;16960;49.404;8.248;2023-02-10T14:48:27;7.67;;;6.97;;
30147;SDS011;16960;49.404;8.248;2023-02-10T14:50:57;7.40;;;6.70;;
30147;SDS011;16960;49.404;8.248;2023-02-10T14:53:32;7.67;;;6.87;;
30147;SDS011;16960;49.404;8.248;2023-02-10T14:56:02;6.90;;;6.30;;
30147;SDS011;16960;49.404;8.248;2023-02-10T14:58:30;6.83;;;5.60;;
30147;SDS011;16960;49.404;8.248;2023-02-10T15:01:00;7.13;;;6.43;;
30147;SDS011;16960;49.404;8.248;2023-02-10T15:03:31;6.97;;;6.30;;
30147;SDS011;16960;49.404;8.248;2023-02-10T15:05:59;6.57;;;6.07;;
30147;SDS011;16960;49.404;8.248;2023-02-10T15:08:31;7.70;;;6.90;;
30147;SDS011;16960;49.404;8.248;2023-02-10T15:11:03;6.40;;;5.80;;
30147;SDS011;16960;49.404;8.248;2023-02-10T15:13:36;7.60;;;6.90;;
30147;SDS011;16960;49.404;8.248;2023-02-10T15:16:07;6.30;;;5.73;;
30147;SDS011;16960;49.404;8.248;2023-02-10T15:18:39;6.80;;;6.20;;
30147;SDS011;16960;49.404;8.248;2023-02-10T15:21:23;7.80;;;7.10;;